createdAt,value
2022-12-23T00:00:33.196Z,7.45
2022-12-23T00:02:59.516Z,7.55
2022-12-23T00:05:25.892Z,7.61
2022-12-23T00:07:52.101Z,7.77
2022-12-23T00:10:18.341Z,7.80
2022-12-23T00:12:44.572Z,7.72
2022-12-23T00:15:10.868Z,7.64
2022-12-23T00:17:37.129Z,7.65
2022-12-23T00:20:03.354Z,7.65
2022-12-23T00:22:30.818Z,7.67
2022-12-23T00:24:57.425Z,7.78
2022-12-23T00:27:23.740Z,6.78
2022-12-23T00:29:50.078Z,6.77
2022-12-23T00:32:16.413Z,7.00
2022-12-23T00:34:42.713Z,7.17
2022-12-23T00:37:08.971Z,7.30
2022-12-23T00:39:35.264Z,7.26
2022-12-23T00:42:01.534Z,7.32
2022-12-23T00:44:27.953Z,7.27
2022-12-23T00:46:54.197Z,7.30
2022-12-23T00:49:20.500Z,7.34
2022-12-23T00:51:46.741Z,7.34
2022-12-23T00:54:12.972Z,7.31
2022-12-23T00:56:39.228Z,7.39
2022-12-23T00:59:05.460Z,7.45
2022-12-23T01:01:31.883Z,7.41
2022-12-23T01:03:58.238Z,7.48
2022-12-23T01:06:24.543Z,7.52
2022-12-23T01:08:50.849Z,7.53
2022-12-23T01:11:17.087Z,7.35
2022-12-23T01:13:43.330Z,7.53
2022-12-23T01:16:15.021Z,7.62
2022-12-23T01:18:43.738Z,7.73
2022-12-23T01:21:09.990Z,7.84
2022-12-23T01:23:36.236Z,6.49
2022-12-23T01:26:02.463Z,6.84
2022-12-23T01:28:29.236Z,6.96
2022-12-23T01:30:55.482Z,7.19
2022-12-23T01:33:21.716Z,7.22
2022-12-23T01:35:47.969Z,7.43
2022-12-23T01:38:14.355Z,7.54
2022-12-23T01:40:40.631Z,7.58
2022-12-23T01:43:06.886Z,7.46
2022-12-23T01:45:33.210Z,5.72
2022-12-23T01:47:59.517Z,6.31
2022-12-23T01:50:25.804Z,6.31
2022-12-23T01:52:52.094Z,6.34
2022-12-23T01:55:18.407Z,6.61
2022-12-23T01:57:44.670Z,6.78
2022-12-23T02:00:10.952Z,6.93
2022-12-23T02:02:37.348Z,6.99
2022-12-23T02:05:03.682Z,6.41
2022-12-23T02:07:29.992Z,6.86
2022-12-23T02:09:56.242Z,6.99
2022-12-23T02:12:22.488Z,6.91
2022-12-23T02:14:48.836Z,6.92
2022-12-23T02:17:15.207Z,7.09
2022-12-23T02:19:41.489Z,7.20
2022-12-23T02:22:07.733Z,7.27
2022-12-23T02:24:34.154Z,7.21
2022-12-23T02:27:00.424Z,7.28
2022-12-23T02:29:26.653Z,7.23
2022-12-23T02:31:52.941Z,7.26
2022-12-23T02:34:19.225Z,7.26
2022-12-23T02:36:45.479Z,7.32
2022-12-23T02:39:11.827Z,7.25
2022-12-23T02:41:38.135Z,7.37
2022-12-23T02:44:04.394Z,7.41
2022-12-23T02:46:30.796Z,7.24
2022-12-23T02:48:57.261Z,7.31
2022-12-23T02:51:23.571Z,7.41
2022-12-23T02:53:49.885Z,7.52
2022-12-23T02:56:16.121Z,7.40
2022-12-23T02:58:42.353Z,7.51
2022-12-23T03:01:08.645Z,7.27
2022-12-23T03:03:35.001Z,7.45
2022-12-23T03:06:01.307Z,7.51
2022-12-23T03:08:27.593Z,7.51
2022-12-23T03:10:53.900Z,7.57
2022-12-23T03:13:20.181Z,7.46
2022-12-23T03:15:46.464Z,7.27
2022-12-23T03:18:12.793Z,7.42
2022-12-23T03:20:39.080Z,7.43
2022-12-23T03:23:05.332Z,7.61
2022-12-23T03:25:31.619Z,7.47
2022-12-23T03:27:57.845Z,7.64
2022-12-23T03:30:24.107Z,7.69
2022-12-23T03:32:50.414Z,7.62
2022-12-23T03:35:16.908Z,7.72
2022-12-23T03:37:43.173Z,7.84
2022-12-23T03:40:09.515Z,7.97
2022-12-23T03:42:35.803Z,7.95
2022-12-23T03:45:37.016Z,8.01
2022-12-23T03:47:48.294Z,7.98
2022-12-23T03:50:14.587Z,7.29
2022-12-23T03:52:40.825Z,7.59
2022-12-23T03:55:07.174Z,7.23
2022-12-23T03:57:33.411Z,6.18
2022-12-23T03:59:59.671Z,6.61
2022-12-23T04:02:26.080Z,6.70
2022-12-23T04:04:52.399Z,6.70
2022-12-23T04:07:18.672Z,5.92
2022-12-23T04:09:44.998Z,6.29
2022-12-23T04:12:11.272Z,5.94
2022-12-23T04:14:55.727Z,5.68
2022-12-23T04:17:42.002Z,6.22
2022-12-23T04:20:24.955Z,6.32
2022-12-23T04:22:51.277Z,6.54
2022-12-23T04:25:17.623Z,6.79
2022-12-23T04:27:43.866Z,6.92
2022-12-23T04:30:10.171Z,7.05
2022-12-23T04:32:36.486Z,6.92
2022-12-23T04:35:02.760Z,6.95
2022-12-23T04:37:29.033Z,6.79
2022-12-23T04:39:55.334Z,6.62
2022-12-23T04:42:21.595Z,6.67
2022-12-23T04:44:47.888Z,6.78
2022-12-23T04:47:14.219Z,6.89
2022-12-23T04:49:40.486Z,6.89
2022-12-23T04:52:06.827Z,7.05
2022-12-23T04:54:33.095Z,7.14
2022-12-23T04:56:59.339Z,7.28
2022-12-23T04:59:25.639Z,7.38
2022-12-23T05:01:51.999Z,7.44
2022-12-23T05:04:18.484Z,7.51
2022-12-23T05:06:44.859Z,7.53
2022-12-23T05:09:11.114Z,7.62
2022-12-23T05:11:42.074Z,7.75
2022-12-23T05:14:08.709Z,7.94
2022-12-23T05:16:35.008Z,8.08
2022-12-23T05:19:01.295Z,8.17
2022-12-23T05:21:27.677Z,8.08
2022-12-23T05:23:53.966Z,7.11
2022-12-23T05:26:20.223Z,5.64
2022-12-23T05:28:46.503Z,4.76
2022-12-23T05:31:12.891Z,4.77
2022-12-23T05:33:39.233Z,4.91
2022-12-23T05:36:05.510Z,5.48
2022-12-23T05:38:31.823Z,5.89
2022-12-23T05:40:58.126Z,6.10
2022-12-23T05:43:24.381Z,6.36
2022-12-23T05:45:50.726Z,6.27
2022-12-23T05:48:17.029Z,6.36
2022-12-23T05:50:43.369Z,6.51
2022-12-23T05:53:09.676Z,6.58
2022-12-23T05:55:35.969Z,6.65
2022-12-23T05:58:02.190Z,6.62
2022-12-23T06:00:28.493Z,6.59
2022-12-23T06:02:55.084Z,6.56
2022-12-23T06:05:21.447Z,6.58
2022-12-23T06:07:47.996Z,6.71
2022-12-23T06:10:15.053Z,6.85
2022-12-23T06:12:41.290Z,7.08
2022-12-23T06:15:07.566Z,7.24
2022-12-23T06:17:33.849Z,7.38
2022-12-23T06:20:00.144Z,7.52
2022-12-23T06:22:26.473Z,7.37
2022-12-23T06:24:52.725Z,7.59
2022-12-23T06:27:18.952Z,7.68
2022-12-23T06:29:45.236Z,7.82
2022-12-23T06:32:11.543Z,7.91
2022-12-23T06:34:37.804Z,8.01
2022-12-23T06:37:04.095Z,8.06
2022-12-23T06:39:30.394Z,8.20
2022-12-23T06:41:56.678Z,8.29
2022-12-23T06:44:22.898Z,8.30
2022-12-23T06:46:49.188Z,8.42
2022-12-23T06:49:15.506Z,8.35
2022-12-23T06:51:41.765Z,7.20
2022-12-23T06:54:08.100Z,7.40
2022-12-23T06:56:34.397Z,7.35
2022-12-23T06:59:03.488Z,5.91
2022-12-23T07:01:29.998Z,6.36
2022-12-23T07:03:56.533Z,6.61
2022-12-23T07:06:22.782Z,6.81
2022-12-23T07:08:49.283Z,6.97
2022-12-23T07:11:15.563Z,7.08
2022-12-23T07:13:41.821Z,7.15
2022-12-23T07:16:08.185Z,6.83
2022-12-23T07:18:34.507Z,7.18
2022-12-23T07:21:00.763Z,7.41
2022-12-23T07:23:27.085Z,7.52
2022-12-23T07:25:53.363Z,7.71
2022-12-23T07:28:19.588Z,7.86
2022-12-23T07:30:45.904Z,8.10
2022-12-23T07:33:12.153Z,8.26
2022-12-23T07:35:38.389Z,8.48
2022-12-23T07:38:05.103Z,8.61
2022-12-23T07:40:31.404Z,8.60
2022-12-23T07:42:57.728Z,8.70
2022-12-23T07:45:24.076Z,8.26
2022-12-23T07:47:50.383Z,6.91
2022-12-23T07:50:16.635Z,6.00
2022-12-23T07:52:42.942Z,6.43
2022-12-23T07:55:09.382Z,6.02
2022-12-23T07:57:35.671Z,6.19
2022-12-23T08:00:01.995Z,6.58
2022-12-23T08:02:28.464Z,6.80
2022-12-23T08:04:54.906Z,6.98
2022-12-23T08:07:21.150Z,7.17
2022-12-23T08:09:47.446Z,7.18
2022-12-23T08:12:13.703Z,7.20
2022-12-23T08:14:40.036Z,7.20
2022-12-23T08:17:06.456Z,7.38
2022-12-23T08:19:32.834Z,7.63
2022-12-23T08:21:59.116Z,7.83
2022-12-23T08:24:25.415Z,7.96
2022-12-23T08:26:51.675Z,8.10
2022-12-23T08:29:17.913Z,8.14
2022-12-23T08:31:44.166Z,8.36
2022-12-23T08:34:10.565Z,8.54
2022-12-23T08:36:36.926Z,7.91
2022-12-23T08:39:03.171Z,6.67
2022-12-23T08:41:29.486Z,7.11
2022-12-23T08:43:55.749Z,7.16
2022-12-23T08:46:22.086Z,7.29
2022-12-23T08:48:49.717Z,7.37
2022-12-23T08:51:16.421Z,7.34
2022-12-23T08:53:42.687Z,7.45
2022-12-23T08:56:08.991Z,7.57
2022-12-23T08:58:35.315Z,7.71
2022-12-23T09:01:01.601Z,7.79
2022-12-23T09:03:28.043Z,8.09
2022-12-23T09:05:54.410Z,8.21
2022-12-23T09:08:20.671Z,8.27
2022-12-23T09:10:46.969Z,8.46
2022-12-23T09:13:19.897Z,8.45
2022-12-23T09:15:51.458Z,8.42
2022-12-23T09:18:17.794Z,8.37
2022-12-23T09:20:44.096Z,8.47
2022-12-23T09:23:10.445Z,8.54
2022-12-23T09:25:36.727Z,8.75
2022-12-23T09:28:02.968Z,8.84
2022-12-23T09:30:30.314Z,8.73
2022-12-23T09:32:56.684Z,7.67
2022-12-23T09:35:22.988Z,7.51
2022-12-23T09:37:49.319Z,7.84
2022-12-23T09:40:15.585Z,7.99
2022-12-23T09:42:41.825Z,7.97
2022-12-23T09:45:08.072Z,7.96
2022-12-23T09:47:34.389Z,8.04
2022-12-23T09:50:00.676Z,7.85
2022-12-23T09:52:26.923Z,7.91
2022-12-23T09:54:53.260Z,7.94
2022-12-23T09:57:19.635Z,8.04
2022-12-23T09:59:45.875Z,8.02
2022-12-23T10:02:12.251Z,8.04
2022-12-23T10:04:39.109Z,8.22
2022-12-23T10:07:05.376Z,8.34
2022-12-23T10:09:31.691Z,8.43
2022-12-23T10:11:57.978Z,8.43
2022-12-23T10:14:24.240Z,8.20
2022-12-23T10:16:50.552Z,8.47
2022-12-23T10:19:16.891Z,8.57
2022-12-23T10:21:47.111Z,8.65
2022-12-23T10:24:14.049Z,8.82
2022-12-23T10:26:40.467Z,8.95
2022-12-23T10:29:06.730Z,9.04
2022-12-23T10:31:40.469Z,8.90
2022-12-23T10:34:07.351Z,8.96
2022-12-23T10:36:33.628Z,9.02
2022-12-23T10:38:59.974Z,8.86
2022-12-23T10:41:26.261Z,8.89
2022-12-23T10:43:52.520Z,8.77
2022-12-23T10:46:19.329Z,8.94
2022-12-23T10:48:45.633Z,9.13
2022-12-23T10:51:11.869Z,9.28
2022-12-23T10:53:38.213Z,9.45
2022-12-23T10:56:04.536Z,9.47
2022-12-23T10:58:30.768Z,9.67
2022-12-23T11:00:57.135Z,9.33
2022-12-23T11:03:23.799Z,9.65
2022-12-23T11:05:50.243Z,9.42
2022-12-23T11:08:16.548Z,9.46
2022-12-23T11:10:42.824Z,9.57
2022-12-23T11:13:09.073Z,9.75
2022-12-23T11:15:35.390Z,9.41
2022-12-23T11:18:01.641Z,9.07
2022-12-23T11:20:27.913Z,9.25
2022-12-23T11:22:54.231Z,8.88
2022-12-23T11:25:20.508Z,8.67
2022-12-23T11:27:46.750Z,8.57
2022-12-23T11:30:13.047Z,8.65
2022-12-23T11:32:39.309Z,8.77
2022-12-23T11:35:05.703Z,8.92
2022-12-23T11:37:34.434Z,9.05
2022-12-23T11:40:00.925Z,9.15
2022-12-23T11:42:27.411Z,8.60
2022-12-23T11:44:53.879Z,8.58
2022-12-23T11:47:20.319Z,8.28
2022-12-23T11:49:46.579Z,8.17
2022-12-23T11:52:12.918Z,8.41
2022-12-23T11:54:39.427Z,8.49
2022-12-23T11:57:05.889Z,8.62
2022-12-23T11:59:32.287Z,8.75
2022-12-23T12:01:58.779Z,8.91
2022-12-23T12:04:25.314Z,8.92
2022-12-23T12:06:56.312Z,8.86
2022-12-23T12:09:23.214Z,8.73
2022-12-23T12:11:49.638Z,8.80
2022-12-23T12:14:15.972Z,8.73
2022-12-23T12:16:42.424Z,8.87
2022-12-23T12:19:08.840Z,8.98
2022-12-23T12:21:35.141Z,9.08
2022-12-23T12:24:17.742Z,9.16
2022-12-23T12:26:45.459Z,9.18
2022-12-23T12:29:11.961Z,9.29
2022-12-23T12:31:38.282Z,9.30
2022-12-23T12:34:04.681Z,9.34
2022-12-23T12:36:31.222Z,9.34
2022-12-23T12:38:57.614Z,9.27
2022-12-23T12:41:24.035Z,9.19
2022-12-23T12:43:50.443Z,9.17
2022-12-23T12:46:17.085Z,9.38
2022-12-23T12:48:43.583Z,9.43
2022-12-23T12:51:10.087Z,9.52
2022-12-23T12:53:36.459Z,9.66
2022-12-23T12:56:04.569Z,9.60
2022-12-23T12:58:30.882Z,9.60
2022-12-23T13:00:57.163Z,9.62
2022-12-23T13:03:23.515Z,9.76
2022-12-23T13:05:53.761Z,9.75
2022-12-23T13:08:20.858Z,9.77
2022-12-23T13:10:47.144Z,9.68
2022-12-23T13:13:14.435Z,9.47
2022-12-23T13:15:40.875Z,9.64
2022-12-23T13:18:07.578Z,9.70
2022-12-23T13:20:34.021Z,9.74
2022-12-23T13:23:15.131Z,9.80
2022-12-23T13:25:46.691Z,9.92
2022-12-23T13:28:12.944Z,9.80
2022-12-23T13:30:39.360Z,9.47
2022-12-23T13:33:05.864Z,9.34
2022-12-23T13:35:32.204Z,9.31
2022-12-23T13:37:58.504Z,9.48
2022-12-23T13:40:25.056Z,9.61
2022-12-23T13:42:51.476Z,9.75
2022-12-23T13:45:18.110Z,9.77
2022-12-23T13:47:44.607Z,9.85
2022-12-23T13:50:11.027Z,9.82
2022-12-23T13:52:37.357Z,9.93
2022-12-23T13:55:03.793Z,9.97
2022-12-23T13:57:30.165Z,9.95
2022-12-23T14:00:01.100Z,9.96
2022-12-23T14:02:31.271Z,9.98
2022-12-23T14:04:57.674Z,10.08
2022-12-23T14:07:24.041Z,10.00
2022-12-23T14:09:50.507Z,10.02
2022-12-23T14:12:16.897Z,10.05
2022-12-23T14:14:43.262Z,10.13
2022-12-23T14:17:09.563Z,9.99
2022-12-23T14:19:36.159Z,9.70
2022-12-23T14:22:02.379Z,9.85
2022-12-23T14:24:28.670Z,9.98
2022-12-23T14:26:55.003Z,9.94
2022-12-23T14:29:21.267Z,10.00
2022-12-23T14:31:47.659Z,9.81
2022-12-23T14:34:14.114Z,9.77
2022-12-23T14:36:40.410Z,9.71
2022-12-23T14:39:07.741Z,9.72
2022-12-23T14:41:33.991Z,9.67
2022-12-23T14:44:00.363Z,9.67
2022-12-23T14:46:26.728Z,9.66
2022-12-23T14:49:04.467Z,9.72
2022-12-23T14:51:39.348Z,9.71
2022-12-23T14:54:05.585Z,9.70
2022-12-23T14:56:31.824Z,9.77
2022-12-23T14:58:58.174Z,9.81
2022-12-23T15:01:24.437Z,9.81
2022-12-23T15:03:54.535Z,9.88
2022-12-23T15:06:27.513Z,9.92
2022-12-23T15:08:53.819Z,9.83
2022-12-23T15:11:20.066Z,9.89
2022-12-23T15:13:46.343Z,9.95
2022-12-23T15:16:12.752Z,9.95
2022-12-23T15:18:39.043Z,9.98
2022-12-23T15:21:05.321Z,9.97
2022-12-23T15:23:31.631Z,9.96
2022-12-23T15:25:57.863Z,9.86
2022-12-23T15:28:24.155Z,9.93
2022-12-23T15:30:50.533Z,9.73
2022-12-23T15:33:52.040Z,9.67
2022-12-23T15:36:03.173Z,9.65
2022-12-23T15:38:29.456Z,9.79
2022-12-23T15:40:55.704Z,9.88
2022-12-23T15:43:22.036Z,9.84
2022-12-23T15:45:48.277Z,9.85
2022-12-23T15:48:14.521Z,9.72
2022-12-23T15:50:41.835Z,9.74
2022-12-23T15:53:08.357Z,9.84
2022-12-23T15:55:34.601Z,9.68
2022-12-23T15:58:00.925Z,9.64
2022-12-23T16:00:27.158Z,9.70
2022-12-23T16:03:02.727Z,9.80
2022-12-23T16:05:30.912Z,9.93
2022-12-23T16:07:57.150Z,9.94
2022-12-23T16:10:23.419Z,9.76
2022-12-23T16:12:49.744Z,9.78
2022-12-23T16:15:15.995Z,9.73
2022-12-23T16:17:42.260Z,9.78
2022-12-23T16:20:08.588Z,9.73
2022-12-23T16:22:34.853Z,9.79
2022-12-23T16:25:01.087Z,9.71
2022-12-23T16:27:27.411Z,9.75
2022-12-23T16:29:53.624Z,9.72
2022-12-23T16:32:20.015Z,9.75
2022-12-23T16:34:46.408Z,9.83
2022-12-23T16:37:12.652Z,9.89
2022-12-23T16:39:38.881Z,9.89
2022-12-23T16:42:05.141Z,9.81
2022-12-23T16:44:31.398Z,9.74
2022-12-23T16:46:57.674Z,9.77
2022-12-23T16:49:29.583Z,9.82
2022-12-23T16:51:57.650Z,9.88
2022-12-23T16:54:23.893Z,9.84
2022-12-23T16:56:50.183Z,9.88
2022-12-23T16:59:16.510Z,9.70
2022-12-23T17:01:42.927Z,9.81
2022-12-23T17:04:09.294Z,9.69
2022-12-23T17:06:37.427Z,9.76
2022-12-23T17:09:03.741Z,9.41
2022-12-23T17:11:29.971Z,9.08
2022-12-23T17:14:03.264Z,8.97
2022-12-23T17:16:30.399Z,8.92
2022-12-23T17:18:56.657Z,8.95
2022-12-23T17:21:22.910Z,9.12
2022-12-23T17:23:49.223Z,9.22
2022-12-23T17:26:15.466Z,9.34
2022-12-23T17:28:41.744Z,9.42
2022-12-23T17:31:14.218Z,9.55
2022-12-23T17:33:41.083Z,9.57
2022-12-23T17:36:07.338Z,9.35
2022-12-23T17:38:33.835Z,9.31
2022-12-23T17:41:00.058Z,9.52
2022-12-23T17:43:26.309Z,9.53
2022-12-23T17:45:52.766Z,9.62
2022-12-23T17:48:22.281Z,9.65
2022-12-23T17:50:51.556Z,9.72
2022-12-23T17:53:17.896Z,9.45
2022-12-23T17:55:44.122Z,9.61
2022-12-23T17:58:10.360Z,9.48
2022-12-23T18:00:36.610Z,9.03
2022-12-23T18:03:03.910Z,8.91
2022-12-23T18:05:30.154Z,9.14
2022-12-23T18:07:56.442Z,9.28
2022-12-23T18:10:22.747Z,9.29
2022-12-23T18:12:49.019Z,9.37
2022-12-23T18:15:15.285Z,9.47
2022-12-23T18:17:41.629Z,9.41
2022-12-23T18:20:07.888Z,9.35
2022-12-23T18:22:34.147Z,9.40
2022-12-23T18:25:00.463Z,9.40
2022-12-23T18:27:26.680Z,9.44
2022-12-23T18:29:52.929Z,9.40
2022-12-23T18:32:19.272Z,9.36
2022-12-23T18:34:45.497Z,9.39
2022-12-23T18:37:11.752Z,9.44
2022-12-23T18:39:38.104Z,9.42
2022-12-23T18:42:04.358Z,9.39
2022-12-23T18:44:30.599Z,9.25
2022-12-23T18:46:57.021Z,9.22
2022-12-23T18:49:23.363Z,9.29
2022-12-23T18:51:49.630Z,9.29
2022-12-23T18:54:15.991Z,9.33
2022-12-23T18:56:42.335Z,9.47
2022-12-23T18:59:08.563Z,9.29
2022-12-23T19:01:34.918Z,9.33
2022-12-23T19:04:01.249Z,9.37
2022-12-23T19:06:27.521Z,9.41
2022-12-23T19:08:53.820Z,9.48
2022-12-23T19:11:20.064Z,9.50
2022-12-23T19:13:46.325Z,9.59
2022-12-23T19:16:12.665Z,9.45
2022-12-23T19:18:39.025Z,9.58
2022-12-23T19:21:05.303Z,9.68
2022-12-23T19:23:31.595Z,9.58
2022-12-23T19:25:57.891Z,9.61
2022-12-23T19:28:24.142Z,9.61
2022-12-23T19:30:50.545Z,9.66
2022-12-23T19:33:16.871Z,9.45
2022-12-23T19:35:43.146Z,9.33
2022-12-23T19:38:09.475Z,9.12
2022-12-23T19:40:35.781Z,9.20
2022-12-23T19:43:02.017Z,9.24
2022-12-23T19:45:28.310Z,9.37
2022-12-23T19:47:54.597Z,9.24
2022-12-23T19:50:20.885Z,9.35
2022-12-23T19:52:47.182Z,9.32
2022-12-23T19:55:13.466Z,9.43
2022-12-23T19:57:39.750Z,9.50
2022-12-23T20:00:06.189Z,9.48
2022-12-23T20:02:32.527Z,9.23
2022-12-23T20:04:58.755Z,9.35
2022-12-23T20:07:25.059Z,9.41
2022-12-23T20:09:51.365Z,9.45
2022-12-23T20:12:17.589Z,9.56
2022-12-23T20:14:43.900Z,9.68
2022-12-23T20:17:10.155Z,9.77
2022-12-23T20:19:43.758Z,9.68
2022-12-23T20:22:12.096Z,9.63
2022-12-23T20:24:38.345Z,9.46
2022-12-23T20:27:09.524Z,9.62
2022-12-23T20:29:38.084Z,9.62
2022-12-23T20:32:04.399Z,9.49
2022-12-23T20:34:36.499Z,9.55
2022-12-23T20:37:05.348Z,9.26
2022-12-23T20:39:31.614Z,9.36
2022-12-23T20:41:57.864Z,9.25
2022-12-23T20:44:34.416Z,9.26
2022-12-23T20:47:01.827Z,9.29
2022-12-23T20:49:28.207Z,9.30
2022-12-23T20:51:54.524Z,9.42
2022-12-23T20:54:23.811Z,9.55
2022-12-23T20:56:54.417Z,9.29
2022-12-23T20:59:20.716Z,9.41
2022-12-23T21:01:47.086Z,9.32
2022-12-23T21:04:13.340Z,9.39
2022-12-23T21:06:39.597Z,9.46
2022-12-23T21:09:05.829Z,9.52
2022-12-23T21:11:32.141Z,9.57
2022-12-23T21:14:04.130Z,8.53
2022-12-23T21:16:32.344Z,7.76
2022-12-23T21:18:58.725Z,8.14
2022-12-23T21:21:25.015Z,8.40
2022-12-23T21:23:51.243Z,8.61
2022-12-23T21:26:17.551Z,8.74
2022-12-23T21:28:43.810Z,8.92
2022-12-23T21:31:10.221Z,8.91
2022-12-23T21:33:36.624Z,8.89
2022-12-23T21:36:02.932Z,8.90
2022-12-23T21:38:29.196Z,8.94
2022-12-23T21:40:55.510Z,8.95
2022-12-23T21:43:21.838Z,9.05
2022-12-23T21:45:48.080Z,9.09
2022-12-23T21:48:14.366Z,9.07
2022-12-23T21:50:40.649Z,9.17
2022-12-23T21:53:06.919Z,9.31
2022-12-23T21:55:33.208Z,9.40
2022-12-23T21:57:59.464Z,9.35
2022-12-23T22:00:25.762Z,9.17
2022-12-23T22:02:52.168Z,9.19
2022-12-23T22:05:18.471Z,9.22
2022-12-23T22:07:44.699Z,9.21
2022-12-23T22:10:10.996Z,9.23
2022-12-23T22:12:37.258Z,9.28
2022-12-23T22:15:07.966Z,9.09
2022-12-23T22:17:37.755Z,8.98
2022-12-23T22:20:04.012Z,8.82
2022-12-23T22:22:30.231Z,8.88
2022-12-23T22:24:56.495Z,8.81
2022-12-23T22:27:22.720Z,8.74
2022-12-23T22:29:48.949Z,8.77
2022-12-23T22:32:15.199Z,8.84
2022-12-23T22:34:41.460Z,8.77
2022-12-23T22:37:07.691Z,8.84
2022-12-23T22:39:33.989Z,8.69
2022-12-23T22:42:00.285Z,8.70
2022-12-23T22:44:26.530Z,8.57
2022-12-23T22:46:52.856Z,8.54
2022-12-23T22:49:19.177Z,8.74
2022-12-23T22:51:46.307Z,8.79
2022-12-23T22:54:12.625Z,8.83
2022-12-23T22:56:38.940Z,8.98
2022-12-23T22:59:05.199Z,9.05
2022-12-23T23:01:31.488Z,9.21
2022-12-23T23:03:57.847Z,9.29
2022-12-23T23:06:24.152Z,9.26
2022-12-23T23:08:50.398Z,9.27
2022-12-23T23:11:16.726Z,9.07
2022-12-23T23:13:42.975Z,9.12
2022-12-23T23:16:09.251Z,9.03
2022-12-23T23:18:35.610Z,9.07
2022-12-23T23:21:01.879Z,9.13
2022-12-23T23:23:28.141Z,9.04
2022-12-23T23:25:54.387Z,9.24
2022-12-23T23:28:20.659Z,9.35
2022-12-23T23:30:46.915Z,9.32
2022-12-23T23:33:13.202Z,9.40
2022-12-23T23:35:39.455Z,9.41
2022-12-23T23:38:05.715Z,9.32
2022-12-23T23:40:31.994Z,9.37
2022-12-23T23:42:58.286Z,9.39
2022-12-23T23:45:24.581Z,9.21
2022-12-23T23:47:50.869Z,9.31
2022-12-23T23:50:17.164Z,9.43
2022-12-23T23:52:43.424Z,9.45
2022-12-23T23:55:09.674Z,9.52
2022-12-23T23:57:36.622Z,9.57
